Time;durP1;ratioP1;P1;durP2;ratioP2;P2;SDS_P1;SDS_P2;PMS_P1;PMS_P2;Temp;Humidity;BMP_temperature;BMP_pressure;BME280_temperature;BME280_humidity;BME280_pressure;Samples;Min_cycle;Max_cycle;Signal;HPM_P1;HPM_P2
2021/12/12 00:01:39;;;;;;;4.97;4.40;;;;;;;0.33;100.00;96565.47;5072624;28;24423;-73
2021/12/12 00:04:13;;;;;;;7.05;5.22;;;;;;;0.32;100.00;96571.44;5072131;28;24418;-73
2021/12/12 00:06:43;;;;;;;6.80;5.32;;;;;;;0.24;100.00;96568.13;5071912;28;24651;-72
2021/12/12 00:09:13;;;;;;;6.63;5.53;;;;;;;0.16;100.00;96575.00;5071985;28;24421;-73
2021/12/12 00:11:41;;;;;;;6.18;5.40;;;;;;;0.14;100.00;96566.50;5072097;28;24441;-73
2021/12/12 00:14:11;;;;;;;6.80;4.93;;;;;;;0.18;100.00;96573.25;5071836;28;24445;-73
2021/12/12 00:16:40;;;;;;;4.80;4.32;;;;;;;0.15;100.00;96570.75;5071471;28;24415;-73
2021/12/12 00:19:08;;;;;;;4.80;4.30;;;;;;;0.07;100.00;96563.16;5071740;28;24831;-73
2021/12/12 00:21:36;;;;;;;5.53;4.78;;;;;;;0.07;100.00;96573.34;5071916;28;24476;-73
2021/12/12 00:24:08;;;;;;;5.85;4.88;;;;;;;0.02;100.00;96582.75;5071804;28;24422;-73
2021/12/12 00:26:35;;;;;;;5.28;4.78;;;;;;;-0.04;100.00;96586.22;5071488;28;24426;-74
2021/12/12 00:29:02;;;;;;;5.27;4.13;;;;;;;-0.11;100.00;96588.78;5071385;28;24426;-73
2021/12/12 00:31:29;;;;;;;5.75;4.97;;;;;;;-0.14;100.00;96592.22;5071715;28;24511;-73
2021/12/12 00:33:57;;;;;;;6.37;4.77;;;;;;;-0.17;100.00;96586.31;5071620;28;24439;-73
2021/12/12 00:36:26;;;;;;;5.75;4.40;;;;;;;-0.06;100.00;96599.81;5070247;28;24517;-73
2021/12/12 00:38:57;;;;;;;5.75;4.55;;;;;;;-0.15;100.00;96597.31;5071386;28;24422;-73
2021/12/12 00:41:28;;;;;;;4.78;4.30;;;;;;;-0.10;100.00;96605.78;5071339;28;24426;-73
2021/12/12 00:43:56;;;;;;;7.95;4.45;;;;;;;-0.14;100.00;96601.56;5071131;28;24434;-73
2021/12/12 00:46:25;;;;;;;5.32;4.60;;;;;;;-0.05;100.00;96602.31;5071107;28;24426;-73
2021/12/12 00:48:52;;;;;;;5.88;4.50;;;;;;;0.02;100.00;96605.66;5071149;28;24499;-75
2021/12/12 00:51:27;;;;;;;4.35;3.95;;;;;;;0.03;100.00;96606.50;5071499;28;24434;-73
2021/12/12 00:53:56;;;;;;;6.85;5.03;;;;;;;-0.18;100.00;96607.53;5071075;28;24504;-73
2021/12/12 00:56:22;;;;;;;6.30;4.50;;;;;;;-0.12;100.00;96608.31;5071080;28;24419;-73
2021/12/12 00:58:49;;;;;;;5.75;4.75;;;;;;;-0.09;100.00;96612.56;5071120;28;24426;-73
2021/12/12 01:01:25;;;;;;;9.68;5.72;;;;;;;-0.11;100.00;96620.22;5071132;28;24781;-74
2021/12/12 01:03:54;;;;;;;6.30;5.43;;;;;;;-0.06;100.00;96618.47;5071077;28;24461;-73
2021/12/12 01:06:23;;;;;;;7.72;5.35;;;;;;;-0.11;100.00;96616.81;5070613;28;24415;-73
2021/12/12 01:08:52;;;;;;;6.05;4.78;;;;;;;-0.08;100.00;96624.41;5070709;28;24799;-73
2021/12/12 01:11:23;;;;;;;7.47;4.90;;;;;;;-0.09;100.00;96626.13;5071053;28;24959;-73
2021/12/12 01:13:50;;;;;;;5.68;4.50;;;;;;;-0.05;100.00;96625.25;5070876;28;24438;-73
2021/12/12 01:16:20;;;;;;;5.80;4.53;;;;;;;-0.02;100.00;96622.69;5070718;28;24438;-73
2021/12/12 01:18:51;;;;;;;8.63;4.40;;;;;;;0.04;100.00;96624.34;5070578;28;24415;-73
2021/12/12 01:21:21;;;;;;;5.70;5.03;;;;;;;-0.13;100.00;96633.81;5070604;28;24430;-73
2021/12/12 01:23:50;;;;;;;6.87;4.83;;;;;;;-0.17;100.00;96634.69;5070752;28;24411;-73
2021/12/12 01:26:17;;;;;;;5.00;4.50;;;;;;;-0.23;100.00;96643.19;5070530;28;24422;-74
2021/12/12 01:28:49;;;;;;;5.90;3.60;;;;;;;-0.34;100.00;96648.34;5070616;28;24518;-72
2021/12/12 01:31:24;;;;;;;9.30;3.40;;;;;;;-0.23;100.00;96640.66;5070635;28;24429;-73
2021/12/12 01:33:58;;;;;;;5.57;4.13;;;;;;;-0.14;100.00;96632.97;5070372;28;24829;-73
2021/12/12 01:36:30;;;;;;;6.13;4.20;;;;;;;-0.01;100.00;96629.44;5070529;28;24430;-72
2021/12/12 01:39:00;;;;;;;7.47;4.80;;;;;;;-0.01;100.00;96633.69;5070606;28;24431;-74
2021/12/12 01:41:28;;;;;;;5.47;4.23;;;;;;;0.11;100.00;96635.31;5070618;28;24410;-73
2021/12/12 01:44:02;;;;;;;6.07;4.57;;;;;;;0.17;100.00;96638.66;5070323;28;24418;-73
2021/12/12 01:46:33;;;;;;;4.95;4.05;;;;;;;0.29;100.00;96639.41;5070253;28;24468;-75
2021/12/12 01:49:04;;;;;;;5.75;3.97;;;;;;;0.45;100.00;96629.09;5070500;28;24438;-74
2021/12/12 01:51:31;;;;;;;8.18;4.78;;;;;;;0.39;100.00;96635.94;5070313;28;24788;-75
2021/12/12 01:54:00;;;;;;;6.93;4.25;;;;;;;0.24;100.00;96636.91;5070325;28;24446;-74
2021/12/12 01:56:29;;;;;;;5.47;4.57;;;;;;;0.07;100.00;96638.75;5070039;28;24846;-75
2021/12/12 01:59:03;;;;;;;8.13;5.40;;;;;;;0.14;100.00;96640.38;5070518;28;24429;-75
2021/12/12 02:01:33;;;;;;;8.60;4.85;;;;;;;0.20;100.00;96632.69;5070576;28;24422;-75
2021/12/12 02:04:05;;;;;;;5.25;4.68;;;;;;;0.21;100.00;96642.88;5070488;28;24411;-75
2021/12/12 02:06:32;;;;;;;7.93;5.50;;;;;;;0.16;100.00;96644.63;5070033;28;24532;-74
2021/12/12 02:09:00;;;;;;;5.55;4.95;;;;;;;0.18;100.00;96650.53;5070049;28;24456;-75
2021/12/12 02:11:28;;;;;;;7.18;5.53;;;;;;;0.06;100.00;96644.69;5070307;28;24970;-75
2021/12/12 02:14:07;;;;;;;6.47;5.03;;;;;;;0.07;100.00;96647.22;5070125;28;24520;-75
2021/12/12 02:16:37;;;;;;;7.97;4.83;;;;;;;0.14;100.00;96653.97;5069998;28;24509;-74
2021/12/12 02:19:05;;;;;;;5.67;4.47;;;;;;;0.10;100.00;96647.19;5069945;28;24427;-75
2021/12/12 02:21:37;;;;;;;5.07;4.07;;;;;;;0.17;100.00;96643.75;5069947;28;24418;-75
2021/12/12 02:35:05;;;;;;;7.28;5.13;;;;;;;0.22;100.00;96654.78;5070255;28;24812;-74
2021/12/12 02:35:42;;;;;;;4.33;3.87;;;;;;;0.27;100.00;96659.81;5069435;28;24542;-75
2021/12/12 02:38:11;;;;;;;5.57;4.53;;;;;;;0.21;100.00;96658.16;5070225;28;24515;-74
2021/12/12 02:40:43;;;;;;;5.72;4.45;;;;;;;0.16;100.00;96651.41;5070207;28;24430;-75
2021/12/12 02:43:11;;;;;;;4.55;4.05;;;;;;;0.17;100.00;96666.69;5069931;28;24427;-74
2021/12/12 02:45:38;;;;;;;5.75;4.45;;;;;;;0.07;100.00;96666.75;5069562;28;24454;-75
2021/12/12 02:48:08;;;;;;;4.80;3.77;;;;;;;0.10;100.00;96657.38;5069756;28;24425;-74
2021/12/12 02:50:41;;;;;;;4.97;3.83;;;;;;;0.11;100.00;96660.78;5069819;28;24430;-74
2021/12/12 02:53:11;;;;;;;4.88;4.47;;;;;;;-0.21;100.00;96666.13;5069695;28;24556;-74
2021/12/12 02:55:43;;;;;;;5.22;4.32;;;;;;;-0.41;100.00;96658.56;5069429;28;24439;-74
2021/12/12 02:58:15;;;;;;;7.35;5.53;;;;;;;-0.60;100.00;96658.66;5069847;28;24846;-73
2021/12/12 03:00:47;;;;;;;7.43;5.30;;;;;;;-0.69;100.00;96661.28;5073346;28;24475;-73
2021/12/12 03:03:15;;;;;;;5.60;4.72;;;;;;;-0.73;100.00;96651.97;5073158;28;24776;-73
2021/12/12 03:05:45;;;;;;;7.57;4.75;;;;;;;-0.67;100.00;96649.38;5072906;28;24974;-74
2021/12/12 03:08:13;;;;;;;4.90;4.40;;;;;;;-0.59;100.00;96647.66;5073288;28;24826;-75
2021/12/12 03:10:47;;;;;;;7.03;5.40;;;;;;;-0.85;100.00;96652.03;5073379;28;24411;-73
2021/12/12 03:13:14;;;;;;;5.95;5.20;;;;;;;-0.98;100.00;96653.75;5073229;28;24421;-75
2021/12/12 03:15:44;;;;;;;9.35;4.95;;;;;;;-1.03;100.00;96658.03;5072655;28;24508;-74
2021/12/12 03:20:42;;;;;;;5.20;4.55;;;;;;;-0.98;100.00;96656.28;5091790;28;24461;-68
2021/12/12 03:23:15;;;;;;;5.85;4.65;;;;;;;-1.10;100.00;96656.34;5093318;28;24414;-68
2021/12/12 03:25:44;;;;;;;5.38;4.70;;;;;;;-1.00;100.00;96655.47;5092863;28;24414;-68
2021/12/12 03:28:16;;;;;;;5.18;4.55;;;;;;;-0.93;100.00;96648.66;5092983;28;25004;-68
2021/12/12 03:30:46;;;;;;;6.50;4.87;;;;;;;-0.88;100.00;96650.34;5093282;28;24471;-68
2021/12/12 03:33:13;;;;;;;5.80;4.45;;;;;;;-0.77;100.00;96656.22;5093338;28;24422;-69
2021/12/12 03:35:40;;;;;;;5.00;4.50;;;;;;;-0.66;100.00;96647.72;5092623;28;24445;-68
2021/12/12 03:38:07;;;;;;;5.68;4.32;;;;;;;-0.65;100.00;96647.69;5092966;28;24464;-68
2021/12/12 03:40:37;;;;;;;5.93;4.60;;;;;;;-0.58;100.00;96651.06;5092789;28;24973;-69
2021/12/12 03:43:07;;;;;;;6.10;5.18;;;;;;;-0.59;100.00;96650.22;5092998;28;24471;-70
2021/12/12 03:45:36;;;;;;;5.97;4.80;;;;;;;-0.60;100.00;96648.50;5092787;28;24414;-68
2021/12/12 03:48:07;;;;;;;5.45;4.95;;;;;;;-0.59;100.00;96654.47;5092902;28;24425;-70
2021/12/12 03:50:37;;;;;;;5.85;5.18;;;;;;;-0.59;100.00;96650.22;5092874;28;24422;-69
2021/12/12 03:53:05;;;;;;;9.55;5.07;;;;;;;-0.67;100.00;96658.72;5092686;28;24420;-70
2021/12/12 03:55:32;;;;;;;5.35;4.85;;;;;;;-0.81;100.00;96648.63;5091971;28;24445;-68
2021/12/12 03:57:59;;;;;;;9.30;5.50;;;;;;;-0.93;100.00;96648.66;5092853;28;24641;-67
2021/12/12 04:00:32;;;;;;;5.28;4.60;;;;;;;-1.10;100.00;96652.09;5092700;28;24429;-69
2021/12/12 04:02:59;;;;;;;5.75;5.10;;;;;;;-1.26;100.00;96647.91;5092597;28;24421;-68
2021/12/12 04:05:26;;;;;;;5.55;5.00;;;;;;;-1.33;100.00;96649.63;5092161;28;24410;-69
2021/12/12 04:07:53;;;;;;;7.65;4.97;;;;;;;-1.39;100.00;96646.25;5092211;28;24468;-69
2021/12/12 04:10:23;;;;;;;12.07;4.85;;;;;;;-1.41;100.00;96653.84;5092229;28;24775;-69
2021/12/12 04:12:50;;;;;;;15.05;5.07;;;;;;;-1.48;100.00;96653.03;5092735;28;24410;-68
2021/12/12 04:15:17;;;;;;;9.80;3.95;;;;;;;-1.36;100.00;96657.25;5091854;28;24445;-68
2021/12/12 04:17:46;;;;;;;7.72;4.72;;;;;;;-1.27;100.00;96659.75;5092613;28;24414;-68
2021/12/12 04:20:16;;;;;;;6.63;4.50;;;;;;;-1.17;100.00;96657.22;5091769;28;24455;-70
2021/12/12 04:22:42;;;;;;;32.65;4.72;;;;;;;-1.10;100.00;96659.72;5092049;28;24425;-70
2021/12/12 04:25:10;;;;;;;5.93;4.33;;;;;;;-1.12;100.00;96651.25;5091875;28;24414;-68
2021/12/12 04:27:38;;;;;;;6.70;4.55;;;;;;;-1.06;100.00;96658.03;5092084;28;24414;-69
2021/12/12 04:30:06;;;;;;;4.53;4.13;;;;;;;-1.04;100.00;96661.41;5091885;28;24422;-68
2021/12/12 04:32:33;;;;;;;20.30;4.80;;;;;;;-1.12;100.00;96668.19;5091852;28;24410;-69
2021/12/12 04:35:06;;;;;;;15.35;4.68;;;;;;;-1.29;100.00;96668.25;5091498;28;24537;-68
2021/12/12 04:37:33;;;;;;;17.90;4.33;;;;;;;-1.35;100.00;96679.25;5091995;28;24440;-69
2021/12/12 04:40:00;;;;;;;26.48;4.32;;;;;;;-1.54;100.00;96682.69;5091615;28;25020;-68
2021/12/12 04:42:30;;;;;;;13.25;3.97;;;;;;;-1.52;100.00;96684.38;5091698;28;24418;-70
2021/12/12 04:45:10;;;;;;;11.57;3.85;;;;;;;-1.51;100.00;96686.06;5091533;28;24410;-69
2021/12/12 04:50:33;;;;;;;4.13;3.63;;;;;;;-1.42;100.00;96689.44;5091477;28;24551;-68
2021/12/12 04:53:04;;;;;;;4.35;3.95;;;;;;;-1.33;100.00;96694.53;5091416;28;24422;-68
2021/12/12 04:55:35;;;;;;;7.07;4.00;;;;;;;-1.25;100.00;96693.66;5091014;28;24807;-68
2021/12/12 04:58:06;;;;;;;5.97;3.83;;;;;;;-1.18;100.00;96693.66;5091335;28;24418;-68
2021/12/12 05:00:36;;;;;;;5.25;3.83;;;;;;;-1.20;100.00;96696.19;5091557;28;24410;-70
2021/12/12 05:03:12;;;;;;;4.78;3.72;;;;;;;-1.19;100.00;96697.88;5091469;28;24425;-70
2021/12/12 05:05:48;;;;;;;14.20;4.80;;;;;;;-1.13;100.00;96702.94;5091028;28;24460;-69
2021/12/12 05:08:21;;;;;;;7.25;4.38;;;;;;;-1.23;100.00;96704.66;5090869;28;24525;-69
2021/12/12 05:10:51;;;;;;;16.73;5.57;;;;;;;-1.22;100.00;96713.16;5091357;28;24425;-69
2021/12/12 05:13:21;;;;;;;19.40;5.53;;;;;;;-1.26;100.00;96707.22;5091438;28;24771;-69
2021/12/12 05:15:51;;;;;;;16.20;4.90;;;;;;;-1.23;100.00;96706.34;5090839;28;24863;-70
2021/12/12 05:18:22;;;;;;;23.13;4.60;;;;;;;-1.20;100.00;96695.34;5091142;28;24414;-68
2021/12/12 05:20:55;;;;;;;13.57;4.65;;;;;;;-1.28;100.00;96701.28;5090836;28;24417;-69
2021/12/12 05:23:25;;;;;;;4.82;4.35;;;;;;;-1.31;100.00;96706.38;5090691;28;24421;-69
2021/12/12 05:25:57;;;;;;;5.68;4.50;;;;;;;-1.42;100.00;96705.53;5090853;28;24448;-68
2021/12/12 05:28:29;;;;;;;19.88;4.82;;;;;;;-1.44;100.00;96712.31;5090521;28;24434;-68
2021/12/12 05:31:00;;;;;;;7.47;3.72;;;;;;;-1.46;100.00;96706.38;5090770;28;24417;-69
2021/12/12 05:33:28;;;;;;;11.05;4.03;;;;;;;-1.46;100.00;96708.94;5090652;28;24422;-70
2021/12/12 05:35:56;;;;;;;44.15;4.40;;;;;;;-1.76;100.00;96703.00;5090430;28;24445;-68
2021/12/12 05:38:24;;;;;;;38.43;3.47;;;;;;;-1.84;100.00;96709.78;5090561;28;24889;-70
2021/12/12 05:40:51;;;;;;;17.67;3.65;;;;;;;-1.79;100.00;96704.69;5089497;28;24787;-68
2021/12/12 05:43:19;;;;;;;49.80;3.70;;;;;;;-1.90;100.00;96709.75;5090568;28;24426;-69
2021/12/12 05:45:46;;;;;;;48.10;3.83;;;;;;;-1.97;100.00;96708.06;5090127;28;24415;-68
2021/12/12 05:48:14;;;;;;;13.60;2.97;;;;;;;-1.85;100.00;96702.19;5090788;28;24422;-68
2021/12/12 05:50:43;;;;;;;5.30;3.28;;;;;;;-1.75;100.00;96703.84;5090537;28;24982;-68
2021/12/12 05:53:12;;;;;;;19.38;3.70;;;;;;;-1.60;100.00;96697.91;5090613;28;24429;-69
2021/12/12 05:55:39;;;;;;;20.08;3.45;;;;;;;-1.72;100.00;96703.84;5090155;28;24852;-68
2021/12/12 05:58:09;;;;;;;10.50;3.70;;;;;;;-1.84;100.00;96704.69;5090486;28;24472;-70
2021/12/12 06:00:39;;;;;;;5.80;4.25;;;;;;;-2.03;100.00;96710.63;5090744;28;24818;-68
2021/12/12 06:03:09;;;;;;;7.05;4.90;;;;;;;-2.13;100.00;96703.81;5090570;28;24422;-70
2021/12/12 06:05:36;;;;;;;4.68;4.15;;;;;;;-2.13;100.00;96699.59;5090247;28;24479;-68
2021/12/12 06:08:04;;;;;;;4.78;4.38;;;;;;;-2.12;100.00;96695.34;5090325;28;24467;-70
2021/12/12 06:10:35;;;;;;;4.47;4.07;;;;;;;-1.97;100.00;96705.53;5090369;28;24430;-68
2021/12/12 06:13:03;;;;;;;7.22;4.45;;;;;;;-1.97;100.00;96710.59;5090263;28;24421;-68
2021/12/12 06:15:31;;;;;;;4.10;3.63;;;;;;;-1.92;100.00;96711.47;5090161;28;24438;-69
2021/12/12 06:17:59;;;;;;;6.80;4.13;;;;;;;-1.98;100.00;96706.38;5090636;28;24421;-68
2021/12/12 06:20:28;;;;;;;5.65;4.38;;;;;;;-2.11;100.00;96715.69;5090151;28;24479;-68
2021/12/12 06:22:56;;;;;;;4.35;3.95;;;;;;;-2.18;100.00;96713.13;5090322;28;24414;-69
2021/12/12 06:25:24;;;;;;;5.97;4.00;;;;;;;-2.05;100.00;96720.75;5089961;28;24410;-68
2021/12/12 06:27:52;;;;;;;4.88;4.00;;;;;;;-1.94;100.00;96723.31;5090516;28;24437;-70
2021/12/12 06:30:22;;;;;;;4.03;3.63;;;;;;;-1.89;100.00;96723.31;5090362;28;24429;-69
2021/12/12 06:32:51;;;;;;;4.90;4.07;;;;;;;-1.85;100.00;96723.34;5090562;28;24464;-68
2021/12/12 06:35:19;;;;;;;6.90;4.70;;;;;;;-1.74;100.00;96733.50;5093146;28;24935;-70
2021/12/12 06:37:46;;;;;;;7.82;5.03;;;;;;;-1.98;100.00;96740.22;5094105;28;24417;-69
2021/12/12 06:40:16;;;;;;;4.75;4.32;;;;;;;-2.26;100.00;96739.31;5094366;28;24418;-70
2021/12/12 06:42:42;;;;;;;4.53;3.90;;;;;;;-2.11;100.00;96746.13;5094219;28;24422;-68
2021/12/12 06:45:13;;;;;;;6.38;5.28;;;;;;;-2.00;100.00;96746.16;5093696;28;24955;-70
2021/12/12 06:47:40;;;;;;;6.18;5.57;;;;;;;-1.98;100.00;96747.00;5093993;28;24850;-68
2021/12/12 06:50:08;;;;;;;5.38;4.88;;;;;;;-1.91;100.00;96751.25;5093802;28;24468;-70
2021/12/12 06:52:36;;;;;;;5.85;5.22;;;;;;;-1.80;100.00;96747.03;5094175;28;24479;-69
2021/12/12 06:55:09;;;;;;;7.10;4.78;;;;;;;-1.74;100.00;96746.19;5093697;28;24499;-69
2021/12/12 06:57:36;;;;;;;5.82;5.25;;;;;;;-1.76;100.00;96751.25;5093779;28;24484;-69
2021/12/12 07:00:06;;;;;;;11.90;5.75;;;;;;;-1.81;100.00;96752.97;5093507;28;24829;-70
2021/12/12 07:02:34;;;;;;;14.68;7.22;;;;;;;-1.93;100.00;96760.53;5093364;28;24422;-69
2021/12/12 07:05:01;;;;;;;13.50;5.93;;;;;;;-1.94;100.00;96753.75;5093218;28;24805;-69
2021/12/12 07:07:28;;;;;;;7.45;6.28;;;;;;;-1.87;100.00;96762.25;5092689;28;25061;-71
2021/12/12 07:09:55;;;;;;;6.53;5.03;;;;;;;-2.06;100.00;96768.97;5093460;28;24430;-70
2021/12/12 07:12:23;;;;;;;6.00;4.70;;;;;;;-2.24;100.00;96767.22;5093603;28;25011;-69
2021/12/12 07:14:53;;;;;;;5.40;4.90;;;;;;;-2.36;100.00;96760.44;5093396;28;24510;-71
2021/12/12 07:17:20;;;;;;;4.25;3.85;;;;;;;-2.38;100.00;96759.56;5093158;28;24414;-70
2021/12/12 07:19:49;;;;;;;5.60;4.50;;;;;;;-2.46;100.00;96763.78;5093048;28;24475;-69
2021/12/12 07:22:16;;;;;;;7.60;4.63;;;;;;;-2.47;100.00;96767.16;5093486;28;24410;-68
2021/12/12 07:24:44;;;;;;;12.25;4.18;;;;;;;-2.41;100.00;96772.28;5093305;28;24942;-69
2021/12/12 07:27:13;;;;;;;16.20;5.70;;;;;;;-2.35;100.00;96776.50;5093157;28;24939;-69
2021/12/12 07:29:40;;;;;;;36.15;5.10;;;;;;;-2.48;100.00;96780.69;5093170;28;24428;-71
2021/12/12 07:32:08;;;;;;;34.97;4.68;;;;;;;-2.49;100.00;96779.81;5093016;28;24460;-70
2021/12/12 07:34:35;;;;;;;14.65;5.03;;;;;;;-2.31;100.00;96778.19;5093142;28;24426;-70
2021/12/12 07:37:08;;;;;;;6.30;5.13;;;;;;;-2.18;100.00;96777.41;5092844;28;24974;-70
2021/12/12 07:39:35;;;;;;;10.05;5.53;;;;;;;-2.11;100.00;96773.19;5093099;28;24414;-72
2021/12/12 07:42:04;;;;;;;6.25;5.60;;;;;;;-2.07;100.00;96783.38;5093102;28;24443;-71
2021/12/12 07:44:34;;;;;;;8.75;6.68;;;;;;;-1.93;100.00;96778.31;5092309;28;24894;-70
2021/12/12 07:47:00;;;;;;;6.68;6.03;;;;;;;-1.82;100.00;96781.72;5092624;28;24528;-68
2021/12/12 07:49:31;;;;;;;6.13;5.53;;;;;;;-1.69;100.00;96782.59;5092886;28;24815;-68
2021/12/12 07:51:57;;;;;;;11.63;6.10;;;;;;;-1.76;100.00;96783.44;5092982;28;24467;-69
2021/12/12 07:54:26;;;;;;;13.48;7.10;;;;;;;-1.77;100.00;96785.13;5092765;28;24417;-70
2021/12/12 07:56:53;;;;;;;9.88;7.78;;;;;;;-1.68;100.00;96784.28;5092336;28;24445;-67
2021/12/12 07:59:20;;;;;;;8.70;7.80;;;;;;;-1.70;100.00;96791.06;5092489;28;24421;-68
2021/12/12 08:01:49;;;;;;;10.35;6.68;;;;;;;-1.73;100.00;96794.44;5092767;28;24419;-70
2021/12/12 08:04:17;;;;;;;11.52;7.20;;;;;;;-1.77;100.00;96789.34;5092634;28;24584;-68
2021/12/12 08:06:44;;;;;;;9.27;6.85;;;;;;;-1.69;100.00;96785.13;5092214;28;24498;-69
2021/12/12 08:09:11;;;;;;;10.98;7.60;;;;;;;-1.78;100.00;96777.47;5092451;28;24483;-68
2021/12/12 08:11:41;;;;;;;14.95;7.13;;;;;;;-1.84;100.00;96780.03;5092321;28;24471;-69
2021/12/12 08:14:13;;;;;;;12.73;6.67;;;;;;;-1.88;100.00;96785.97;5092529;28;24471;-68
2021/12/12 08:16:40;;;;;;;18.67;7.80;;;;;;;-1.80;100.00;96781.72;5091909;28;24843;-70
2021/12/12 08:19:07;;;;;;;20.30;8.48;;;;;;;-1.86;100.00;96779.16;5092047;28;24429;-68
2021/12/12 08:21:34;;;;;;;10.82;7.75;;;;;;;-1.76;100.00;96779.19;5092303;28;24421;-68
2021/12/12 08:24:05;;;;;;;21.20;8.40;;;;;;;-1.84;100.00;96773.25;5092062;28;24421;-69
2021/12/12 08:26:33;;;;;;;11.18;8.63;;;;;;;-1.72;100.00;96778.34;5091995;28;24414;-68
2021/12/12 08:29:01;;;;;;;9.30;8.40;;;;;;;-1.63;100.00;96779.19;5092051;28;24850;-69
2021/12/12 08:31:28;;;;;;;10.77;9.38;;;;;;;-1.65;100.00;96770.75;5092010;28;24421;-69
2021/12/12 08:33:54;;;;;;;16.70;8.80;;;;;;;-1.63;100.00;96781.75;5097774;28;24495;-67
2021/12/12 08:36:21;;;;;;;10.03;8.83;;;;;;;-1.64;100.00;96782.59;5101312;28;24502;-69
2021/12/12 08:38:48;;;;;;;9.30;8.35;;;;;;;-1.54;100.00;96787.69;5101968;28;24464;-70
2021/12/12 08:41:15;;;;;;;12.93;9.50;;;;;;;-1.50;100.00;96776.69;5103777;28;24504;-69
2021/12/12 08:43:43;;;;;;;10.67;9.67;;;;;;;-1.51;100.00;96789.38;5107298;28;24429;-69
2021/12/12 08:46:14;;;;;;;11.23;8.38;;;;;;;-1.56;100.00;96791.06;5103476;28;24432;-69
2021/12/12 08:48:44;;;;;;;9.60;8.70;;;;;;;-1.45;100.00;96791.91;5111977;28;24813;-69
2021/12/12 08:51:14;;;;;;;9.25;8.35;;;;;;;-1.40;100.00;96785.16;5111842;27;24432;-69
2021/12/12 08:53:45;;;;;;;9.35;8.32;;;;;;;-1.40;100.00;96786.84;5111718;28;21163;-68
2021/12/12 08:56:18;;;;;;;9.70;8.77;;;;;;;-1.32;100.00;96787.69;5110896;28;24437;-69
2021/12/12 08:58:45;;;;;;;17.73;9.07;;;;;;;-1.33;100.00;96801.25;5111914;28;24429;-69
2021/12/12 09:01:16;;;;;;;9.23;8.32;;;;;;;-1.27;100.00;96791.91;5099707;28;24971;-68
2021/12/12 09:03:50;;;;;;;8.80;7.95;;;;;;;-1.27;100.00;96799.53;5109402;28;24794;-75
2021/12/12 09:06:23;;;;;;;10.00;8.55;;;;;;;-1.15;100.00;96796.19;5111860;28;24462;-69
2021/12/12 09:08:54;;;;;;;10.35;9.05;;;;;;;-1.21;100.00;96806.34;5111759;28;24432;-71
2021/12/12 09:11:27;;;;;;;10.32;8.52;;;;;;;-1.08;100.00;96797.00;5111713;28;24491;-72
2021/12/12 09:13:59;;;;;;;9.43;8.48;;;;;;;-1.03;100.00;96802.94;5111621;28;24505;-71
2021/12/12 09:16:31;;;;;;;13.38;8.50;;;;;;;-1.01;100.00;96806.31;5111135;28;24491;-71
2021/12/12 09:19:04;;;;;;;9.50;8.60;;;;;;;-0.94;100.00;96802.06;5111628;28;24985;-69
2021/12/12 09:21:36;;;;;;;9.00;8.10;;;;;;;-0.88;100.00;96799.53;5111497;28;24428;-70
2021/12/12 09:24:10;;;;;;;8.93;8.02;;;;;;;-0.88;100.00;96802.91;5099392;28;24541;-70
2021/12/12 09:26:43;;;;;;;9.80;8.02;;;;;;;-0.86;100.00;96802.91;5090414;28;24981;-70
2021/12/12 09:29:17;;;;;;;10.13;8.17;;;;;;;-0.83;100.00;96803.75;5091100;28;24434;-70
2021/12/12 09:31:50;;;;;;;10.50;9.40;;;;;;;-0.76;100.00;96799.50;5091053;28;24421;-70
2021/12/12 09:34:21;;;;;;;20.58;11.35;;;;;;;-0.72;100.00;96793.56;5091152;28;24425;-70
2021/12/12 09:36:54;;;;;;;17.95;12.10;;;;;;;-0.63;100.00;96793.56;5090443;28;24438;-69
2021/12/12 09:39:25;;;;;;;10.15;9.15;;;;;;;-0.59;100.00;96791.84;5090712;28;24422;-70
2021/12/12 09:42:10;;;;;;;9.80;8.23;;;;;;;-0.43;100.00;96792.63;5090913;28;24498;-70
2021/12/12 09:45:10;;;;;;;10.48;8.15;;;;;;;-0.37;100.00;96790.94;5090716;28;24978;-69
2021/12/12 09:48:25;;;;;;;9.05;7.72;;;;;;;-0.46;100.00;96796.03;5095379;28;24480;-70
2021/12/12 09:51:14;;;;;;;10.50;9.13;;;;;;;-0.41;100.00;96785.81;5102533;28;24530;-70
2021/12/12 09:54:15;;;;;;;13.77;10.57;;;;;;;-0.28;100.00;96785.78;5098176;28;24438;-69
2021/12/12 09:56:49;;;;;;;13.23;11.75;;;;;;;-0.20;100.00;96790.84;5070849;28;24823;-69
2021/12/12 09:59:27;;;;;;;8.48;7.68;;;;;;;-0.21;100.00;96786.63;5102408;28;24444;-70
2021/12/12 10:02:05;;;;;;;9.48;7.65;;;;;;;-0.05;100.00;96779.75;5102242;28;24433;-70
2021/12/12 10:04:46;;;;;;;10.80;7.75;;;;;;;0.02;100.00;96771.22;5111074;28;24442;-70
2021/12/12 10:07:21;;;;;;;9.67;7.93;;;;;;;0.13;100.00;96779.63;5110713;28;24418;-70
2021/12/12 10:09:55;;;;;;;14.90;9.03;;;;;;;0.14;100.00;96768.59;5115039;28;24552;-70
2021/12/12 10:12:25;;;;;;;15.85;11.63;;;;;;;0.08;100.00;96780.53;5114930;28;24413;-70
2021/12/12 10:15:00;;;;;;;10.95;8.30;;;;;;;0.21;100.00;96780.44;5115074;28;24419;-70
2021/12/12 10:17:32;;;;;;;8.27;7.27;;;;;;;0.15;100.00;96775.41;5114754;28;24445;-70
2021/12/12 10:20:03;;;;;;;7.20;6.05;;;;;;;0.24;100.00;96771.94;5114812;28;24433;-70
2021/12/12 10:22:40;;;;;;;8.68;7.38;;;;;;;0.17;100.00;96773.66;5114904;28;24457;-71
2021/12/12 10:25:10;;;;;;;8.68;6.38;;;;;;;0.32;100.00;96769.34;5114881;28;24648;-69
2021/12/12 10:27:45;;;;;;;10.30;9.02;;;;;;;0.31;100.00;96776.13;5115005;28;24783;-68
2021/12/12 10:30:17;;;;;;;8.93;7.20;;;;;;;0.45;100.00;96766.69;5114893;28;24432;-70
2021/12/12 10:32:54;;;;;;;7.82;6.75;;;;;;;0.55;100.00;96764.06;5114645;28;24482;-69
2021/12/12 10:35:26;;;;;;;7.03;6.05;;;;;;;0.63;100.00;96760.63;5114383;28;24436;-69
2021/12/12 10:37:57;;;;;;;8.70;6.45;;;;;;;0.71;100.00;96761.41;5114788;28;24442;-69
2021/12/12 10:40:29;;;;;;;6.47;5.80;;;;;;;0.72;100.00;96755.44;5114714;28;24425;-68
2021/12/12 10:43:01;;;;;;;7.28;5.70;;;;;;;0.81;100.00;96757.06;5114554;28;24425;-71
2021/12/12 10:45:30;;;;;;;6.95;5.50;;;;;;;0.91;100.00;96758.66;5114583;28;24421;-69
2021/12/12 10:48:01;;;;;;;6.30;5.25;;;;;;;0.98;100.00;96761.16;5114403;28;24455;-70
2021/12/12 10:50:38;;;;;;;5.60;4.97;;;;;;;1.06;100.00;96749.19;5114546;28;24479;-70
2021/12/12 10:53:09;;;;;;;9.20;5.32;;;;;;;1.15;100.00;96755.06;5114139;28;24984;-72
2021/12/12 10:55:41;;;;;;;8.25;4.50;;;;;;;1.11;100.00;96755.94;5114145;28;24409;-72
2021/12/12 10:58:12;;;;;;;6.53;4.72;;;;;;;1.02;100.00;96748.38;5114051;28;24495;-72
2021/12/12 11:00:44;;;;;;;6.70;4.30;;;;;;;1.12;100.00;96749.13;5114425;28;24417;-70
2021/12/12 11:03:17;;;;;;;8.85;4.40;;;;;;;1.14;100.00;96745.69;5114137;28;24815;-69
2021/12/12 11:05:50;;;;;;;6.78;4.50;;;;;;;1.14;100.00;96745.69;5113867;27;25002;-69
2021/12/12 11:08:25;;;;;;;4.50;4.07;;;;;;;1.22;100.00;96740.50;5114183;28;24423;-70
2021/12/12 11:10:54;;;;;;;5.68;4.50;;;;;;;1.41;100.00;96739.47;5114187;28;24429;-70
2021/12/12 11:13:26;;;;;;;6.15;4.55;;;;;;;1.35;100.00;96731.88;5114078;28;24413;-70
2021/12/12 11:15:57;;;;;;;5.23;4.73;;;;;;;1.23;100.00;96736.28;5113653;28;24470;-70
2021/12/12 11:18:27;;;;;;;5.32;4.50;;;;;;;1.23;100.00;96733.72;5113683;28;24413;-71
2021/12/12 11:21:03;;;;;;;4.90;4.45;;;;;;;1.21;100.00;96733.72;5112992;28;24429;-70
2021/12/12 11:23:34;;;;;;;5.07;4.57;;;;;;;1.37;100.00;96736.94;5113572;28;24421;-71
2021/12/12 11:26:05;;;;;;;8.20;6.28;;;;;;;1.35;100.00;96733.56;5113623;28;24409;-71
2021/12/12 11:28:38;;;;;;;7.55;4.70;;;;;;;1.39;100.00;96741.16;5113724;28;24957;-70
2021/12/12 11:31:09;;;;;;;6.90;6.03;;;;;;;1.44;100.00;96738.56;5113645;28;24459;-71
2021/12/12 11:33:38;;;;;;;10.90;9.70;;;;;;;1.36;100.00;96745.47;5113462;28;24418;-70
2021/12/12 11:36:08;;;;;;;5.55;4.80;;;;;;;1.46;100.00;96741.94;5113296;27;24421;-71
2021/12/12 11:38:43;;;;;;;7.63;5.00;;;;;;;1.48;100.00;96741.91;5113556;28;24524;-72
2021/12/12 11:41:15;;;;;;;5.78;4.07;;;;;;;1.49;100.00;96739.38;5113388;28;24421;-71
2021/12/12 11:43:48;;;;;;;5.53;4.15;;;;;;;1.58;100.00;96735.84;5113267;28;24422;-70
2021/12/12 11:46:20;;;;;;;10.30;4.30;;;;;;;1.64;100.00;96723.88;5112860;28;24518;-70
2021/12/12 11:48:55;;;;;;;4.05;3.45;;;;;;;1.64;100.00;96725.56;5113150;28;24829;-69
2021/12/12 11:51:30;;;;;;;5.63;3.95;;;;;;;1.72;100.00;96722.94;5113507;28;24420;-69
2021/12/12 11:54:04;;;;;;;5.28;4.70;;;;;;;1.78;100.00;96715.16;5113211;28;24425;-70